Terminal Aerodrome Forecast
Issued by NWS

Home | Current Version | Previous Version | Text Only | Print | Product List | Glossary On
Versions: 1 2 3 4 5 6 7 8 9 10 11 12 13
000
FTUS41 KPBZ 251306 AAA
TAFLBE
TAF AMD
KLBE 251306Z 2513/2612 23010KT P6SM SCT070
     FM251600 23010G20KT P6SM SCT050
     FM260000 21005KT P6SM BKN100=

USA.gov is the U.S. government's official web portal to all federal, state and local government web resources and services.